Terminal Aerodrome Forecast
Issued by NWS

Home | Current Version | Previous Version | Text Only | Print | Product List | Glossary On
Versions: 1 2 3 4 5 6 7 8 9 10 11 12 13 14
000
FTUS45 KRIW 252100 AAB
TAFCPR
TAF AMD
KCPR 252144Z 2522/2618 02010G20KT 2SM -SN SCT014 OVC022
      TEMPO 2522/2524 3/4SM -SN OVC003
     FM260700 03008KT 3SM -SN SCT008 OVC015
     FM260900 04007KT P6SM VCSH OVC025=

USA.gov is the U.S. government's official web portal to all federal, state and local government web resources and services.